Time;durP1;ratioP1;P1;durP2;ratioP2;P2;SDS_P1;SDS_P2;PMS_P1;PMS_P2;Temp;Humidity;BMP_temperature;BMP_pressure;BME280_temperature;BME280_humidity;BME280_pressure;Samples;Min_cycle;Max_cycle;Signal;HPM_P1;HPM_P2
2022/08/10 00:02:32;;;;;;;2.93;2.73;;;18.00;99.90;;;;;;5037046;28;20249;-60
2022/08/10 00:04:58;;;;;;;4.80;3.00;;;18.00;99.90;;;;;;5012501;28;20569;-61
2022/08/10 00:07:26;;;;;;;4.10;2.80;;;17.90;99.90;;;;;;5026089;28;20195;-60
2022/08/10 00:09:51;;;;;;;6.07;2.73;;;17.90;99.90;;;;;;5012369;28;20789;-62
2022/08/10 00:12:18;;;;;;;4.50;2.77;;;17.80;99.90;;;;;;5039839;28;20196;-61
2022/08/10 00:14:44;;;;;;;3.63;3.20;;;17.80;99.90;;;;;;5017369;28;20211;-60
2022/08/10 00:17:10;;;;;;;3.87;2.57;;;17.80;99.90;;;;;;5028408;28;20666;-65
2022/08/10 00:19:35;;;;;;;4.27;2.80;;;17.70;99.90;;;;;;5026350;28;20207;-64
2022/08/10 00:22:01;;;;;;;2.63;2.43;;;17.70;99.90;;;;;;5037227;28;20285;-64
2022/08/10 00:24:26;;;;;;;3.40;2.60;;;17.60;99.90;;;;;;5023109;28;20681;-64
2022/08/10 00:26:52;;;;;;;4.23;3.00;;;17.60;99.90;;;;;;5034867;28;20703;-65
2022/08/10 00:29:17;;;;;;;5.23;3.13;;;17.50;99.90;;;;;;5029694;28;20222;-64
2022/08/10 00:31:43;;;;;;;4.10;2.90;;;17.40;99.90;;;;;;5031566;28;20206;-64
2022/08/10 00:34:08;;;;;;;2.73;2.57;;;17.40;99.90;;;;;;5026309;28;20227;-64
2022/08/10 00:36:34;;;;;;;4.40;3.03;;;17.40;99.90;;;;;;5045231;28;20414;-65
2022/08/10 00:38:59;;;;;;;5.43;2.70;;;17.30;99.90;;;;;;5017326;28;20193;-65
2022/08/10 00:41:25;;;;;;;3.97;2.50;;;17.30;99.90;;;;;;5015581;28;20187;-64
2022/08/10 00:43:50;;;;;;;4.80;2.90;;;17.30;99.90;;;;;;5032455;28;20209;-64
2022/08/10 00:46:16;;;;;;;3.00;2.70;;;17.30;99.90;;;;;;5013401;28;20214;-64
2022/08/10 00:48:41;;;;;;;5.37;2.93;;;17.20;99.90;;;;;;5034184;28;20553;-64
2022/08/10 00:51:07;;;;;;;5.83;3.00;;;17.20;99.90;;;;;;5010814;28;20211;-64
2022/08/10 00:53:32;;;;;;;4.50;3.33;;;17.10;99.90;;;;;;5039843;28;20214;-66
2022/08/10 00:55:58;;;;;;;3.07;2.63;;;17.10;99.90;;;;;;5017056;28;20184;-64
2022/08/10 00:58:24;;;;;;;6.30;3.10;;;17.10;99.90;;;;;;5036484;28;20188;-64
2022/08/10 01:00:49;;;;;;;4.13;3.03;;;17.00;99.90;;;;;;5026895;28;20220;-64
2022/08/10 01:03:15;;;;;;;5.63;3.40;;;17.00;99.90;;;;;;5042239;28;20569;-65
2022/08/10 01:05:49;;;;;;;3.37;2.77;;;17.00;99.90;;;;;;5013790;28;20565;-64
2022/08/10 01:08:38;;;;;;;5.70;3.03;;;17.00;99.90;;;;;;5020318;28;20186;-65
2022/08/10 01:11:30;;;;;;;4.03;3.20;;;16.90;99.90;;;;;;5009690;28;20727;-64
2022/08/10 01:14:12;;;;;;;4.33;3.17;;;16.80;99.90;;;;;;5017165;28;20198;-64
2022/08/10 01:17:05;;;;;;;4.10;3.10;;;16.80;99.90;;;;;;5027186;28;20642;-64
2022/08/10 01:19:59;;;;;;;7.63;4.03;;;16.80;99.90;;;;;;5005106;28;20693;-65
2022/08/10 01:23:03;;;;;;;5.70;3.43;;;16.70;99.90;;;;;;5009605;28;20191;-64
2022/08/10 01:25:57;;;;;;;7.40;3.70;;;16.70;99.90;;;;;;5014170;28;20344;-66
2022/08/10 01:28:41;;;;;;;4.90;3.30;;;16.60;99.90;;;;;;5013594;28;20233;-64
2022/08/10 01:31:10;;;;;;;3.90;3.00;;;16.60;99.90;;;;;;5019174;28;20177;-64
2022/08/10 01:33:46;;;;;;;4.03;2.83;;;16.60;99.90;;;;;;5028857;28;20202;-65
2022/08/10 01:36:16;;;;;;;3.80;3.20;;;16.50;99.90;;;;;;5018817;28;20182;-64
2022/08/10 01:38:48;;;;;;;4.73;3.83;;;16.50;99.90;;;;;;5021455;28;20525;-64
2022/08/10 01:41:28;;;;;;;5.23;3.60;;;16.50;99.90;;;;;;5009270;28;20184;-64
2022/08/10 01:44:00;;;;;;;6.53;3.63;;;16.40;99.90;;;;;;5028668;28;20272;-63
2022/08/10 01:46:27;;;;;;;4.77;3.60;;;16.40;99.90;;;;;;5019497;28;20207;-64
2022/08/10 01:48:55;;;;;;;5.17;3.40;;;16.40;99.90;;;;;;5023385;28;20223;-64
2022/08/10 01:51:26;;;;;;;7.40;3.83;;;16.40;99.90;;;;;;5022374;28;20193;-64
2022/08/10 01:54:10;;;;;;;8.73;3.77;;;16.30;99.90;;;;;;5021362;28;20554;-63
2022/08/10 01:56:39;;;;;;;7.63;4.13;;;16.30;99.90;;;;;;5020659;28;20653;-64
2022/08/10 01:59:30;;;;;;;5.53;4.17;;;16.30;99.90;;;;;;5025006;28;20209;-64
2022/08/10 02:02:00;;;;;;;7.77;5.23;;;16.20;99.90;;;;;;5023267;28;21235;-65
2022/08/10 02:04:28;;;;;;;5.23;4.30;;;16.20;99.90;;;;;;5017479;28;20211;-64
2022/08/10 02:06:54;;;;;;;7.87;4.30;;;16.10;99.90;;;;;;5027197;28;20242;-64
2022/08/10 02:09:26;;;;;;;4.83;4.40;;;16.10;99.90;;;;;;5030753;28;20203;-64
2022/08/10 02:11:54;;;;;;;5.70;4.37;;;16.10;99.90;;;;;;5022478;28;20190;-64
2022/08/10 02:14:21;;;;;;;4.77;4.37;;;16.10;99.90;;;;;;5020818;28;20222;-64
2022/08/10 02:16:49;;;;;;;7.27;4.80;;;16.10;99.90;;;;;;5030132;28;20202;-65
2022/08/10 02:19:20;;;;;;;8.50;4.53;;;16.10;99.90;;;;;;5033152;28;20222;-63
2022/08/10 02:21:47;;;;;;;4.60;4.07;;;16.10;99.90;;;;;;5025255;28;20198;-64
2022/08/10 02:24:15;;;;;;;7.37;3.80;;;16.00;99.90;;;;;;5037575;28;20208;-64
2022/08/10 02:26:44;;;;;;;4.20;3.80;;;16.00;99.90;;;;;;5015632;28;20255;-65
2022/08/10 02:29:14;;;;;;;4.00;3.70;;;15.90;99.90;;;;;;5024083;28;20211;-64
2022/08/10 02:31:41;;;;;;;4.37;3.73;;;16.00;99.90;;;;;;5021737;28;20333;-65
2022/08/10 02:34:09;;;;;;;7.83;4.27;;;15.90;99.90;;;;;;5012450;28;20696;-65
2022/08/10 02:36:37;;;;;;;7.33;4.53;;;15.90;99.90;;;;;;5024218;28;20208;-65
2022/08/10 02:39:05;;;;;;;5.10;4.27;;;15.90;99.90;;;;;;5037725;28;20209;-65
2022/08/10 02:41:42;;;;;;;6.27;4.10;;;15.80;99.90;;;;;;5017070;28;20702;-65
2022/08/10 02:44:25;;;;;;;4.97;3.57;;;15.80;99.90;;;;;;5017480;28;20211;-66
2022/08/10 02:47:01;;;;;;;7.73;4.17;;;15.80;99.90;;;;;;5016981;28;20213;-65
2022/08/10 02:49:33;;;;;;;5.90;3.93;;;15.80;99.90;;;;;;5017547;28;20748;-66
2022/08/10 02:52:17;;;;;;;5.17;4.10;;;15.80;99.90;;;;;;5026730;28;20182;-65
2022/08/10 02:54:50;;;;;;;5.10;4.07;;;15.80;99.90;;;;;;5006548;28;20248;-63
2022/08/10 02:57:24;;;;;;;6.07;4.47;;;15.70;99.90;;;;;;5020220;28;20246;-63
2022/08/10 02:59:53;;;;;;;6.43;5.03;;;15.70;99.90;;;;;;5019265;28;20233;-63
2022/08/10 03:02:34;;;;;;;5.73;4.50;;;15.70;99.90;;;;;;5029371;28;20217;-62
2022/08/10 03:05:05;;;;;;;6.90;5.00;;;15.70;99.90;;;;;;5025095;28;20298;-66
2022/08/10 03:07:58;;;;;;;6.47;4.40;;;15.60;99.90;;;;;;5014459;28;20248;-63
2022/08/10 03:10:28;;;;;;;4.83;4.33;;;15.70;99.90;;;;;;5011660;28;21014;-64
2022/08/10 03:13:00;;;;;;;6.90;4.50;;;15.60;99.90;;;;;;5031740;28;20657;-64
2022/08/10 03:15:28;;;;;;;9.23;4.83;;;15.60;99.90;;;;;;5023978;28;20653;-64
2022/08/10 03:17:56;;;;;;;5.50;4.93;;;15.60;99.90;;;;;;5024948;28;20297;-64
2022/08/10 03:20:22;;;;;;;10.27;5.73;;;15.60;99.90;;;;;;5022145;28;20220;-64
2022/08/10 03:22:51;;;;;;;7.50;5.17;;;15.50;99.90;;;;;;5037316;28;20242;-65
2022/08/10 03:25:21;;;;;;;7.10;5.47;;;15.50;99.90;;;;;;5019635;28;20216;-64
2022/08/10 03:27:47;;;;;;;6.20;4.47;;;15.50;99.90;;;;;;5037825;28;20559;-64
2022/08/10 03:30:13;;;;;;;7.47;4.30;;;15.50;99.90;;;;;;5020184;28;20206;-65
2022/08/10 03:32:41;;;;;;;6.20;5.33;;;15.50;99.90;;;;;;5033988;28;20189;-65
2022/08/10 03:35:08;;;;;;;10.90;4.90;;;15.40;99.90;;;;;;5023501;28;20254;-65
2022/08/10 03:37:33;;;;;;;5.60;5.07;;;15.40;99.90;;;;;;5030796;28;20240;-65
2022/08/10 03:39:59;;;;;;;4.43;4.03;;;15.40;99.90;;;;;;5022576;28;20236;-65
2022/08/10 03:42:27;;;;;;;5.83;5.23;;;15.40;99.90;;;;;;5031687;28;20192;-65
2022/08/10 03:44:54;;;;;;;10.20;5.37;;;15.40;99.90;;;;;;5026000;28;20209;-65
2022/08/10 03:47:22;;;;;;;6.93;5.20;;;15.30;99.90;;;;;;5026915;28;20543;-65
2022/08/10 03:49:49;;;;;;;5.23;4.73;;;15.30;99.90;;;;;;5027216;28;20212;-65
2022/08/10 03:52:16;;;;;;;5.77;4.83;;;15.30;99.90;;;;;;5027886;28;20191;-66
2022/08/10 03:54:42;;;;;;;6.77;4.17;;;15.30;99.90;;;;;;5034717;28;20198;-65
2022/08/10 03:57:08;;;;;;;8.83;5.77;;;15.30;99.90;;;;;;5014509;28;20182;-65
2022/08/10 03:59:35;;;;;;;5.40;4.90;;;15.30;99.90;;;;;;5021404;28;20687;-65
2022/08/10 04:02:01;;;;;;;6.00;5.47;;;15.30;99.90;;;;;;5006040;28;20185;-67
2022/08/10 04:04:27;;;;;;;6.93;5.10;;;15.30;99.90;;;;;;5036814;28;20208;-65
2022/08/10 04:06:55;;;;;;;6.33;5.13;;;15.30;99.90;;;;;;5012398;28;20223;-64
2022/08/10 04:09:22;;;;;;;6.47;5.60;;;15.40;99.90;;;;;;5024212;28;20896;-64
2022/08/10 04:11:48;;;;;;;8.77;4.90;;;15.40;99.90;;;;;;5015775;28;20185;-63
2022/08/10 04:14:13;;;;;;;6.33;5.00;;;15.50;99.90;;;;;;5027305;28;20271;-63
2022/08/10 04:16:38;;;;;;;7.40;5.23;;;15.50;99.90;;;;;;5020336;28;20202;-64
2022/08/10 04:19:05;;;;;;;8.57;5.57;;;15.50;99.90;;;;;;5025999;28;20213;-64
2022/08/10 04:21:36;;;;;;;5.30;4.80;;;15.50;99.90;;;;;;5017460;28;20215;-63
2022/08/10 04:24:04;;;;;;;10.23;5.43;;;15.60;99.90;;;;;;5018633;28;20233;-64
2022/08/10 04:26:31;;;;;;;6.73;4.90;;;15.60;99.90;;;;;;5013229;28;20201;-64
2022/08/10 04:28:56;;;;;;;5.97;5.30;;;15.60;99.90;;;;;;5032561;28;20208;-64
2022/08/10 04:31:26;;;;;;;7.13;6.27;;;15.60;99.90;;;;;;5015968;28;20263;-65
2022/08/10 04:33:53;;;;;;;6.87;6.27;;;15.60;99.90;;;;;;5029993;28;20190;-65
2022/08/10 04:36:20;;;;;;;6.83;6.10;;;15.70;99.90;;;;;;5018435;28;20214;-65
2022/08/10 04:38:48;;;;;;;9.27;6.57;;;15.70;99.90;;;;;;5028800;28;20217;-65
2022/08/10 04:41:15;;;;;;;9.53;5.97;;;15.70;99.90;;;;;;5013411;28;20206;-64
2022/08/10 04:43:41;;;;;;;7.03;5.93;;;15.70;99.90;;;;;;5040172;28;20341;-64
2022/08/10 04:46:06;;;;;;;6.80;6.10;;;15.70;99.90;;;;;;5017961;28;20341;-65
2022/08/10 04:48:32;;;;;;;8.53;6.50;;;15.70;99.90;;;;;;5032684;28;20618;-65
2022/08/10 04:50:57;;;;;;;8.23;7.43;;;15.70;99.90;;;;;;5012751;28;20214;-65
2022/08/10 04:53:23;;;;;;;8.47;6.80;;;15.80;99.90;;;;;;5038522;28;20189;-65
2022/08/10 04:55:48;;;;;;;12.37;5.83;;;15.80;99.90;;;;;;5011781;28;21014;-64
2022/08/10 04:58:14;;;;;;;9.27;6.00;;;15.80;99.90;;;;;;5044436;28;20663;-64
2022/08/10 05:00:39;;;;;;;11.27;6.60;;;15.90;99.90;;;;;;5025283;28;20275;-65
2022/08/10 05:03:05;;;;;;;7.10;6.03;;;15.90;99.90;;;;;;5036355;28;20529;-65
2022/08/10 05:05:30;;;;;;;5.17;4.77;;;15.90;99.90;;;;;;5018635;28;20735;-65
2022/08/10 05:07:56;;;;;;;9.73;5.90;;;15.90;99.90;;;;;;5025273;28;20671;-65
2022/08/10 05:10:21;;;;;;;6.87;5.63;;;16.00;99.90;;;;;;5021674;28;20200;-65
2022/08/10 05:12:47;;;;;;;6.17;5.47;;;16.10;99.90;;;;;;5034633;28;20209;-66
2022/08/10 05:15:14;;;;;;;10.03;6.60;;;16.10;99.90;;;;;;5026014;28;20217;-65
2022/08/10 05:17:41;;;;;;;6.70;4.60;;;16.20;99.90;;;;;;5013221;28;20246;-65
2022/08/10 05:20:09;;;;;;;13.90;6.20;;;16.20;99.90;;;;;;5025414;28;20748;-66
2022/08/10 05:22:37;;;;;;;6.40;5.80;;;16.30;99.90;;;;;;5020266;28;20244;-63
2022/08/10 05:25:04;;;;;;;6.30;5.70;;;16.40;99.90;;;;;;5027452;28;20193;-65
2022/08/10 05:27:29;;;;;;;7.23;5.53;;;16.50;99.90;;;;;;5029302;28;20212;-66
2022/08/10 05:29:54;;;;;;;5.77;5.27;;;16.60;99.90;;;;;;5029704;28;20210;-63
2022/08/10 05:32:20;;;;;;;5.67;5.13;;;16.70;99.90;;;;;;5021248;28;20628;-65
2022/08/10 05:34:46;;;;;;;7.10;4.60;;;16.80;99.90;;;;;;5031867;28;20205;-64
2022/08/10 05:37:12;;;;;;;5.23;4.60;;;16.90;99.90;;;;;;5021545;28;20184;-64
2022/08/10 05:39:38;;;;;;;6.33;5.70;;;17.00;99.90;;;;;;5034212;28;20210;-64
2022/08/10 05:42:05;;;;;;;6.53;5.27;;;17.10;99.90;;;;;;5013823;28;20595;-65
2022/08/10 05:44:30;;;;;;;7.77;5.27;;;17.20;99.90;;;;;;5024536;28;20600;-65
2022/08/10 05:46:56;;;;;;;10.57;4.93;;;17.30;99.90;;;;;;5011638;28;20237;-65
2022/08/10 05:49:21;;;;;;;8.07;5.00;;;17.30;99.90;;;;;;5031090;28;20576;-65
2022/08/10 05:51:47;;;;;;;4.97;4.07;;;17.40;99.90;;;;;;5010235;28;20266;-65
2022/08/10 05:54:16;;;;;;;5.03;4.53;;;17.50;99.90;;;;;;5025653;28;20200;-66
2022/08/10 05:56:44;;;;;;;7.10;5.30;;;17.60;99.90;;;;;;5013803;28;20290;-65
2022/08/10 05:59:11;;;;;;;8.00;4.93;;;17.60;99.90;;;;;;5033812;28;20205;-68
2022/08/10 06:01:40;;;;;;;5.20;4.70;;;17.70;99.90;;;;;;5010063;28;20304;-70
2022/08/10 06:04:09;;;;;;;8.83;4.67;;;17.80;99.90;;;;;;5040288;28;20228;-65
2022/08/10 06:06:37;;;;;;;7.07;4.93;;;17.90;99.90;;;;;;5015389;28;20218;-65
2022/08/10 06:09:04;;;;;;;10.97;5.10;;;18.00;99.90;;;;;;5033371;28;20194;-65
2022/08/10 06:11:32;;;;;;;5.23;4.20;;;18.10;99.90;;;;;;5024762;28;20547;-65
2022/08/10 06:16:43;;;;;;;5.93;4.30;;;18.30;99.90;;;;;;5027067;28;20194;-67
2022/08/10 06:19:12;;;;;;;5.80;4.30;;;18.40;99.90;;;;;;5035647;28;20278;-64
2022/08/10 06:21:39;;;;;;;3.97;3.67;;;18.60;99.90;;;;;;5031211;28;20203;-63
2022/08/10 06:24:09;;;;;;;5.17;3.83;;;18.70;99.90;;;;;;5019738;28;20206;-63
2022/08/10 06:26:35;;;;;;;6.93;4.03;;;18.80;99.90;;;;;;5028470;28;20223;-64
2022/08/10 06:29:06;;;;;;;9.13;4.20;;;18.80;99.90;;;;;;5039894;28;20191;-63
2022/08/10 06:31:35;;;;;;;4.40;3.77;;;18.90;99.90;;;;;;5006900;28;20575;-64
2022/08/10 06:34:02;;;;;;;5.03;4.23;;;19.10;99.90;;;;;;5040254;28;20479;-62
2022/08/10 06:36:29;;;;;;;4.37;3.70;;;19.10;99.90;;;;;;5017436;28;20269;-62
2022/08/10 06:38:56;;;;;;;5.20;3.80;;;19.30;99.90;;;;;;5028096;28;20329;-61
2022/08/10 06:41:24;;;;;;;8.47;3.90;;;19.40;99.90;;;;;;5017897;28;20320;-62
2022/08/10 06:44:02;;;;;;;3.90;3.60;;;19.50;99.90;;;;;;5023838;28;20198;-61
2022/08/10 06:46:29;;;;;;;4.93;4.43;;;19.60;99.90;;;;;;5008689;28;20216;-62
2022/08/10 06:49:00;;;;;;;5.23;3.67;;;19.70;99.90;;;;;;5035911;28;20194;-62
2022/08/10 06:51:30;;;;;;;5.40;3.83;;;19.70;99.90;;;;;;5006340;28;20200;-71
2022/08/10 06:54:01;;;;;;;9.00;3.97;;;19.80;99.90;;;;;;5026663;28;20283;-74
2022/08/10 06:56:30;;;;;;;6.60;3.63;;;20.00;99.90;;;;;;5010233;28;20672;-71
2022/08/10 06:59:15;;;;;;;5.90;4.33;;;20.10;99.90;;;;;;5022634;28;20209;-73
2022/08/10 07:01:43;;;;;;;4.30;3.60;;;20.30;99.90;;;;;;5012240;28;20255;-64
2022/08/10 07:04:20;;;;;;;7.03;3.43;;;20.40;99.90;;;;;;5030183;28;20195;-64
2022/08/10 07:06:48;;;;;;;6.90;3.70;;;20.40;99.90;;;;;;5024679;28;20341;-64
2022/08/10 07:09:15;;;;;;;4.07;3.20;;;20.50;99.90;;;;;;5037140;28;20202;-64
2022/08/10 07:11:43;;;;;;;4.57;3.40;;;20.50;99.90;;;;;;5018375;28;20570;-66
2022/08/10 07:14:11;;;;;;;3.70;3.40;;;20.70;99.90;;;;;;5021174;28;20184;-65
2022/08/10 07:16:39;;;;;;;4.10;3.67;;;20.80;99.90;;;;;;5030229;28;20203;-65
2022/08/10 07:19:07;;;;;;;4.40;3.20;;;20.80;99.90;;;;;;5036105;28;20178;-65
2022/08/10 07:21:34;;;;;;;5.05;3.53;;;21.00;99.90;;;;;;5027995;28;20207;-65
2022/08/10 07:24:01;;;;;;;3.83;3.53;;;21.10;99.90;;;;;;5038427;28;20193;-65
2022/08/10 07:26:29;;;;;;;7.60;3.70;;;21.20;99.90;;;;;;5033071;28;20214;-65
2022/08/10 07:28:56;;;;;;;4.28;3.08;;;21.20;99.90;;;;;;5038058;28;20190;-65
2022/08/10 07:31:24;;;;;;;5.53;3.17;;;21.30;99.90;;;;;;5029615;28;20207;-65
2022/08/10 07:33:52;;;;;;;3.78;3.33;;;21.40;99.90;;;;;;5031843;28;20199;-65
2022/08/10 07:36:20;;;;;;;6.30;3.00;;;21.40;99.90;;;;;;5033274;28;20199;-65
2022/08/10 07:38:47;;;;;;;8.70;2.87;;;21.50;99.90;;;;;;5036475;28;20202;-64
2022/08/10 07:41:14;;;;;;;5.40;3.20;;;21.60;99.90;;;;;;5031217;28;20234;-64
2022/08/10 07:43:40;;;;;;;3.60;3.30;;;21.80;99.90;;;;;;5035216;28;20244;-65
2022/08/10 07:46:11;;;;;;;9.05;2.75;;;21.90;99.90;;;;;;5034162;28;20207;-65
2022/08/10 07:48:44;;;;;;;4.07;2.60;;;22.00;99.90;;;;;;5034151;28;20283;-63
2022/08/10 07:51:11;;;;;;;3.35;3.00;;;22.10;99.90;;;;;;5031992;28;20200;-63
2022/08/10 07:53:42;;;;;;;4.55;3.17;;;22.20;99.90;;;;;;5038235;28;20198;-65
2022/08/10 07:56:09;;;;;;;6.00;4.00;;;22.20;99.90;;;;;;5036342;28;20286;-64
2022/08/10 07:58:40;;;;;;;5.28;3.53;;;22.30;99.90;;;;;;5034302;28;20257;-64
2022/08/10 08:01:05;;;;;;;2.70;2.45;;;22.40;99.90;;;;;;5029134;28;20243;-64
2022/08/10 08:03:32;;;;;;;3.58;2.88;;;22.40;99.90;;;;;;5034133;28;20200;-65
2022/08/10 08:06:00;;;;;;;4.28;3.03;;;22.50;99.90;;;;;;5034541;28;20635;-64
2022/08/10 08:08:29;;;;;;;2.50;2.33;;;22.50;99.90;;;;;;5031953;28;20207;-64
2022/08/10 08:10:56;;;;;;;2.25;2.05;;;22.60;99.90;;;;;;5031634;28;20196;-64
2022/08/10 08:13:22;;;;;;;3.25;2.72;;;22.60;99.90;;;;;;5031420;28;20191;-65
2022/08/10 08:15:49;;;;;;;2.72;2.53;;;22.70;99.90;;;;;;5017346;28;20254;-65
2022/08/10 08:18:17;;;;;;;3.38;2.88;;;22.80;99.90;;;;;;4967120;28;20711;-65
2022/08/10 08:20:44;;;;;;;5.30;2.58;;;23.00;99.90;;;;;;5026650;28;20722;-63
2022/08/10 08:23:12;;;;;;;3.95;2.75;;;23.00;99.90;;;;;;5028505;28;20212;-63
2022/08/10 08:25:39;;;;;;;2.92;2.45;;;23.10;99.90;;;;;;5035852;28;20215;-70
2022/08/10 08:28:07;;;;;;;2.72;2.13;;;23.20;99.90;;;;;;5027513;28;20182;-66
2022/08/10 08:30:34;;;;;;;2.50;2.40;;;23.20;99.90;;;;;;5032492;28;20289;-64
2022/08/10 08:33:00;;;;;;;2.40;2.20;;;23.30;99.90;;;;;;5032073;28;20233;-64
2022/08/10 08:35:25;;;;;;;3.58;2.20;;;23.40;99.90;;;;;;5034875;28;20269;-64
2022/08/10 08:37:52;;;;;;;5.93;2.78;;;23.40;99.90;;;;;;5024198;28;20259;-65
2022/08/10 08:40:23;;;;;;;2.72;2.53;;;23.40;99.90;;;;;;5010760;28;20211;-70
2022/08/10 08:43:15;;;;;;;3.90;2.47;;;23.50;99.90;;;;;;5014881;28;20179;-65
2022/08/10 08:46:04;;;;;;;2.85;2.67;;;23.60;99.90;;;;;;5016984;28;20757;-70
2022/08/10 08:48:56;;;;;;;4.47;2.38;;;23.60;99.90;;;;;;5011557;28;20223;-65
2022/08/10 08:51:27;;;;;;;3.03;2.28;;;23.70;99.90;;;;;;5011883;28;20282;-65
2022/08/10 08:54:14;;;;;;;3.65;2.00;;;23.80;99.90;;;;;;5016720;28;20236;-65
2022/08/10 08:57:11;;;;;;;3.03;2.00;;;23.80;99.90;;;;;;5007059;28;20201;-65
2022/08/10 09:00:03;;;;;;;3.00;1.75;;;23.80;95.20;;;;;;5013813;28;20206;-69
2022/08/10 09:03:07;;;;;;;1.75;1.65;;;23.90;97.20;;;;;;5011665;28;20198;-65
2022/08/10 09:06:10;;;;;;;3.50;2.05;;;24.00;97.60;;;;;;5019598;28;20217;-65
2022/08/10 09:09:01;;;;;;;3.00;2.80;;;24.10;95.20;;;;;;5031255;28;20289;-70
2022/08/10 09:11:58;;;;;;;7.47;3.85;;;24.20;93.20;;;;;;5014534;28;20213;-69
2022/08/10 09:14:34;;;;;;;3.60;2.28;;;24.30;92.10;;;;;;5018669;28;20218;-65
2022/08/10 09:17:33;;;;;;;4.53;2.33;;;24.40;92.40;;;;;;5011520;28;20206;-63
2022/08/10 09:20:26;;;;;;;3.15;1.88;;;24.50;91.10;;;;;;5001119;28;20202;-65
2022/08/10 09:23:18;;;;;;;1.50;1.50;;;24.70;90.30;;;;;;5018317;28;20248;-64
2022/08/10 09:25:52;;;;;;;3.10;2.53;;;24.80;89.10;;;;;;5002965;28;20234;-65
2022/08/10 09:28:24;;;;;;;3.42;2.25;;;24.80;87.80;;;;;;5017659;28;20202;-65
2022/08/10 09:31:01;;;;;;;2.00;1.85;;;24.90;87.20;;;;;;5016572;28;20199;-65
2022/08/10 09:33:42;;;;;;;4.82;2.42;;;24.90;87.00;;;;;;5019251;28;20205;-71
2022/08/10 09:36:22;;;;;;;2.22;2.03;;;25.00;88.10;;;;;;5029722;28;20228;-66
2022/08/10 09:38:59;;;;;;;2.10;2.00;;;25.10;87.60;;;;;;5021047;28;20289;-67
2022/08/10 09:42:06;;;;;;;4.47;1.63;;;25.20;89.10;;;;;;5021945;28;20210;-65
2022/08/10 09:45:02;;;;;;;2.15;1.40;;;25.20;81.80;;;;;;5022916;28;20623;-65
2022/08/10 09:47:50;;;;;;;2.08;1.80;;;25.20;78.50;;;;;;5022203;28;20292;-66
2022/08/10 09:50:39;;;;;;;2.25;1.95;;;25.30;79.50;;;;;;5020606;28;20234;-66
2022/08/10 09:53:19;;;;;;;1.60;1.50;;;25.30;78.00;;;;;;5018123;28;20208;-66
2022/08/10 09:56:21;;;;;;;3.47;1.90;;;25.50;77.20;;;;;;5017871;28;20607;-71
2022/08/10 09:59:33;;;;;;;2.38;1.75;;;25.60;77.70;;;;;;5023181;28;20573;-70
2022/08/10 10:02:15;;;;;;;2.55;1.58;;;25.60;73.80;;;;;;5011348;28;20268;-64
2022/08/10 10:04:57;;;;;;;2.00;1.73;;;25.70;72.60;;;;;;5031056;28;20219;-65
2022/08/10 10:07:26;;;;;;;2.85;1.90;;;25.70;72.40;;;;;;5033998;28;20221;-65
2022/08/10 10:10:03;;;;;;;1.88;1.40;;;25.80;72.20;;;;;;5038716;28;20191;-66
2022/08/10 10:12:46;;;;;;;1.77;1.67;;;25.90;72.30;;;;;;5030420;28;20218;-65
2022/08/10 10:15:39;;;;;;;2.17;1.98;;;26.00;73.00;;;;;;5032879;28;20175;-65
2022/08/10 10:18:13;;;;;;;5.78;1.73;;;26.00;68.80;;;;;;5011625;28;20254;-65
2022/08/10 10:20:51;;;;;;;3.40;2.17;;;26.00;67.20;;;;;;5014021;28;20236;-65
2022/08/10 10:23:41;;;;;;;4.72;1.85;;;26.00;68.30;;;;;;5019630;28;20194;-65
2022/08/10 10:26:12;;;;;;;3.85;1.58;;;26.10;68.20;;;;;;5021616;28;20226;-64
2022/08/10 10:29:21;;;;;;;3.25;1.60;;;26.10;66.00;;;;;;5020576;28;20219;-65
2022/08/10 10:32:11;;;;;;;2.20;1.75;;;26.20;64.70;;;;;;5019403;28;20697;-65
2022/08/10 10:34:58;;;;;;;2.47;1.90;;;26.30;65.20;;;;;;5023091;28;20195;-65
2022/08/10 10:37:25;;;;;;;1.80;1.70;;;26.30;64.00;;;;;;5030939;28;20204;-66
2022/08/10 10:39:53;;;;;;;2.45;1.88;;;26.30;63.00;;;;;;5032878;28;20207;-66
2022/08/10 10:42:44;;;;;;;1.92;1.75;;;26.40;64.00;;;;;;5018367;28;20216;-65
2022/08/10 10:45:32;;;;;;;3.60;1.42;;;26.50;64.20;;;;;;5019091;28;20279;-64
2022/08/10 10:48:28;;;;;;;2.17;1.63;;;26.50;62.10;;;;;;5017719;28;20731;-65
2022/08/10 10:50:59;;;;;;;2.97;1.63;;;26.50;60.60;;;;;;5010862;28;20310;-65
2022/08/10 10:53:49;;;;;;;1.88;1.38;;;26.60;61.00;;;;;;5040779;28;20182;-65
2022/08/10 10:56:42;;;;;;;2.13;1.65;;;26.60;58.30;;;;;;5027336;28;20671;-64
2022/08/10 10:59:47;;;;;;;1.45;1.45;;;26.50;58.90;;;;;;5010718;28;20716;-65
2022/08/10 11:02:31;;;;;;;2.15;1.90;;;26.50;60.00;;;;;;5008846;28;20211;-65
2022/08/10 11:05:27;;;;;;;1.42;1.33;;;26.80;61.20;;;;;;5017454;28;20192;-64
2022/08/10 11:08:03;;;;;;;2.47;1.27;;;27.20;59.40;;;;;;5016842;28;20222;-64
2022/08/10 11:10:50;;;;;;;1.50;1.40;;;27.50;58.40;;;;;;5027680;28;20584;-65
2022/08/10 11:13:34;;;;;;;1.65;1.50;;;27.90;58.60;;;;;;5035282;28;20265;-66
2022/08/10 11:16:15;;;;;;;3.42;1.50;;;28.20;53.80;;;;;;5033213;28;20195;-65
2022/08/10 11:18:56;;;;;;;1.80;1.70;;;28.20;52.30;;;;;;5036215;28;20275;-65
2022/08/10 11:21:41;;;;;;;2.30;1.60;;;28.30;53.20;;;;;;5034758;28;20209;-65
2022/08/10 11:24:24;;;;;;;1.75;1.35;;;28.60;53.40;;;;;;5041897;28;20693;-65
2022/08/10 11:27:10;;;;;;;2.15;1.55;;;28.90;52.50;;;;;;5015335;28;20219;-65
2022/08/10 11:29:56;;;;;;;1.50;1.40;;;29.30;51.40;;;;;;5018304;28;20199;-65
2022/08/10 11:32:43;;;;;;;1.63;1.52;;;29.40;51.50;;;;;;5007459;28;20196;-64
2022/08/10 11:35:30;;;;;;;1.85;1.63;;;29.70;50.20;;;;;;5034524;28;20268;-65
2022/08/10 11:38:31;;;;;;;2.65;1.42;;;29.90;51.50;;;;;;5015110;28;20647;-65
2022/08/10 11:41:03;;;;;;;1.38;1.27;;;30.10;48.60;;;;;;5011408;28;20698;-65
2022/08/10 11:43:34;;;;;;;1.83;1.60;;;30.50;50.80;;;;;;5017332;28;20187;-65
2022/08/10 11:46:10;;;;;;;2.88;1.52;;;30.60;47.20;;;;;;5005037;28;20223;-65
2022/08/10 11:48:39;;;;;;;1.83;1.60;;;30.70;44.90;;;;;;5025894;28;20183;-66
2022/08/10 11:51:12;;;;;;;1.48;1.30;;;30.50;44.90;;;;;;5036040;28;20619;-65
2022/08/10 11:54:04;;;;;;;1.77;1.67;;;30.60;45.30;;;;;;5016587;28;20187;-65
2022/08/10 11:56:51;;;;;;;1.48;1.42;;;31.00;46.40;;;;;;5018698;28;20358;-66
2022/08/10 12:02:04;;;;;;;1.80;1.70;;;32.20;42.90;;;;;;5003860;28;20270;-65
2022/08/10 12:04:31;;;;;;;4.25;1.73;;;32.80;42.10;;;;;;5020867;28;20287;-65
2022/08/10 12:07:03;;;;;;;1.73;1.60;;;33.30;41.20;;;;;;5025464;28;20223;-65
2022/08/10 12:09:31;;;;;;;1.60;1.50;;;33.80;40.70;;;;;;5019019;28;20192;-65
2022/08/10 12:12:00;;;;;;;1.90;1.80;;;34.00;39.00;;;;;;5020704;28;20201;-65
2022/08/10 12:15:05;;;;;;;4.05;1.65;;;34.20;38.00;;;;;;5034220;28;20195;-66
2022/08/10 12:17:41;;;;;;;2.13;1.80;;;34.80;37.20;;;;;;5017967;28;20212;-65
2022/08/10 12:20:12;;;;;;;2.45;1.23;;;35.50;36.60;;;;;;5015175;28;20210;-66
2022/08/10 12:22:41;;;;;;;1.77;1.67;;;35.50;36.30;;;;;;5011537;28;20215;-66
2022/08/10 12:25:16;;;;;;;2.25;2.00;;;35.80;34.30;;;;;;5025080;28;20207;-66
2022/08/10 12:27:55;;;;;;;1.92;1.83;;;35.80;34.40;;;;;;5016604;28;20212;-72
2022/08/10 12:30:31;;;;;;;1.63;1.52;;;36.00;33.80;;;;;;5015383;28;20188;-70
2022/08/10 12:33:08;;;;;;;3.00;2.30;;;36.30;33.10;;;;;;5027852;28;20199;-65
2022/08/10 12:35:44;;;;;;;1.48;1.33;;;36.80;32.40;;;;;;5028490;28;20198;-65
2022/08/10 12:38:21;;;;;;;2.05;1.48;;;37.20;30.10;;;;;;5031440;28;20537;-65
2022/08/10 12:40:54;;;;;;;1.42;1.33;;;37.40;30.40;;;;;;5028161;28;20189;-66
2022/08/10 12:43:40;;;;;;;1.88;1.42;;;38.10;29.40;;;;;;5033281;28;20175;-66
2022/08/10 12:46:17;;;;;;;2.28;1.50;;;38.40;29.60;;;;;;5031054;28;20223;-64
2022/08/10 12:49:01;;;;;;;4.50;1.58;;;38.70;30.00;;;;;;5031800;28;20177;-65
2022/08/10 12:51:30;;;;;;;1.95;1.50;;;39.10;29.00;;;;;;5029615;28;20207;-66
2022/08/10 12:54:15;;;;;;;2.83;1.67;;;39.10;29.60;;;;;;5032701;28;20171;-64
2022/08/10 12:57:00;;;;;;;2.05;1.42;;;39.50;28.60;;;;;;5034442;28;20210;-65
2022/08/10 12:59:27;;;;;;;1.95;1.60;;;40.00;28.00;;;;;;5032492;28;20253;-66
2022/08/10 13:01:56;;;;;;;2.28;2.08;;;39.90;28.40;;;;;;5031344;28;20612;-66
2022/08/10 13:04:29;;;;;;;2.17;1.98;;;40.20;28.60;;;;;;5033185;28;20601;-66
2022/08/10 13:06:58;;;;;;;2.58;1.70;;;40.60;26.90;;;;;;5036122;28;20264;-66
2022/08/10 13:09:25;;;;;;;2.35;1.88;;;40.90;27.50;;;;;;5039765;28;20245;-67
2022/08/10 13:12:03;;;;;;;1.65;1.58;;;41.20;26.80;;;;;;5034539;28;20195;-65
2022/08/10 13:14:54;;;;;;;2.00;1.90;;;40.70;26.90;;;;;;5041973;28;20186;-66
2022/08/10 13:17:24;;;;;;;1.75;1.65;;;41.00;26.70;;;;;;5041898;28;20297;-66
2022/08/10 13:19:53;;;;;;;1.90;1.80;;;41.60;26.10;;;;;;5037889;28;20218;-66
2022/08/10 13:22:22;;;;;;;1.67;1.65;;;41.50;25.80;;;;;;5038427;28;20294;-66
2022/08/10 13:24:50;;;;;;;1.70;1.60;;;41.70;25.30;;;;;;5041246;28;20967;-66